createdAt,value
2022-10-09T00:01:20.337Z,17.03
2022-10-09T00:03:49.353Z,16.34
2022-10-09T00:06:28.569Z,16.10
2022-10-09T00:08:56.190Z,15.40
2022-10-09T00:11:25.390Z,14.75
2022-10-09T00:13:53.844Z,14.87
2022-10-09T00:16:22.226Z,15.12
2022-10-09T00:18:50.072Z,15.37
2022-10-09T00:21:25.489Z,15.38
2022-10-09T00:23:54.381Z,15.73
2022-10-09T00:26:21.623Z,15.81
2022-10-09T00:28:49.056Z,15.74
2022-10-09T00:31:16.958Z,16.10
2022-10-09T00:33:44.405Z,16.02
2022-10-09T00:36:14.507Z,16.18
2022-10-09T00:38:41.657Z,16.09
2022-10-09T00:41:08.696Z,15.24
2022-10-09T00:43:54.188Z,15.49
2022-10-09T00:46:25.719Z,15.92
2022-10-09T00:49:02.333Z,15.76
2022-10-09T00:51:31.180Z,15.95
2022-10-09T00:53:59.194Z,16.14
2022-10-09T00:56:26.396Z,15.96
2022-10-09T00:58:56.323Z,16.09
2022-10-09T01:01:23.144Z,16.28
2022-10-09T01:03:50.060Z,16.38
2022-10-09T01:06:35.236Z,16.31
2022-10-09T01:09:07.847Z,16.18
2022-10-09T01:12:04.112Z,16.23
2022-10-09T01:14:48.022Z,16.51
2022-10-09T01:17:29.134Z,16.19
2022-10-09T01:20:31.836Z,16.41
2022-10-09T01:23:21.886Z,16.52
2022-10-09T01:26:07.581Z,16.29
2022-10-09T01:28:36.209Z,16.18
2022-10-09T01:31:05.651Z,16.23
2022-10-09T01:33:34.196Z,16.31
2022-10-09T01:36:02.733Z,16.18
2022-10-09T01:38:30.845Z,16.07
2022-10-09T01:40:58.658Z,15.83
2022-10-09T01:43:25.394Z,15.69
2022-10-09T01:45:52.298Z,15.38
2022-10-09T01:48:25.205Z,15.12
2022-10-09T01:51:00.003Z,14.77
2022-10-09T01:53:27.599Z,14.87
2022-10-09T01:56:06.452Z,15.05
2022-10-09T01:58:46.698Z,15.41
2022-10-09T02:01:28.231Z,15.42
2022-10-09T02:03:58.789Z,15.23
2022-10-09T02:06:28.360Z,15.36
2022-10-09T02:08:55.707Z,15.44
2022-10-09T02:11:27.666Z,15.55
2022-10-09T02:13:56.008Z,15.47
2022-10-09T02:16:34.760Z,15.64
2022-10-09T02:19:10.785Z,15.63
2022-10-09T02:21:46.556Z,15.76
2022-10-09T02:24:20.285Z,15.73
2022-10-09T02:26:47.972Z,15.57
2022-10-09T02:29:15.717Z,15.42
2022-10-09T02:31:43.646Z,15.37
2022-10-09T02:34:14.158Z,15.46
2022-10-09T02:36:40.994Z,15.46
2022-10-09T02:39:08.548Z,15.39
2022-10-09T02:41:35.928Z,14.90
2022-10-09T02:44:04.203Z,14.09
2022-10-09T02:46:31.776Z,13.85
2022-10-09T02:48:58.629Z,13.78
2022-10-09T02:51:25.863Z,14.25
2022-10-09T02:53:53.884Z,14.30
2022-10-09T02:56:22.334Z,14.59
2022-10-09T02:58:49.297Z,14.47
2022-10-09T03:01:16.283Z,14.36
2022-10-09T03:03:43.393Z,14.39
2022-10-09T03:06:12.655Z,14.02
2022-10-09T03:08:41.850Z,13.63
2022-10-09T03:11:10.059Z,14.28
2022-10-09T03:13:37.768Z,14.67
2022-10-09T03:16:16.265Z,14.02
2022-10-09T03:18:44.099Z,14.45
2022-10-09T03:21:14.394Z,14.31
2022-10-09T03:23:42.754Z,14.47
2022-10-09T03:26:12.718Z,14.89
2022-10-09T03:28:42.309Z,15.02
2022-10-09T03:31:22.360Z,15.07
2022-10-09T03:33:54.271Z,15.11
2022-10-09T03:36:21.143Z,15.03
2022-10-09T03:38:47.879Z,15.19
2022-10-09T03:41:14.763Z,15.19
2022-10-09T03:43:41.481Z,15.16
2022-10-09T03:46:09.050Z,15.28
2022-10-09T03:48:36.706Z,15.23
2022-10-09T03:51:03.747Z,15.30
2022-10-09T03:53:30.568Z,15.18
2022-10-09T03:55:57.416Z,15.13
2022-10-09T03:58:24.495Z,15.16
2022-10-09T04:00:52.851Z,15.02
2022-10-09T04:03:20.196Z,14.96
2022-10-09T04:05:47.184Z,15.17
2022-10-09T04:08:14.384Z,14.95
2022-10-09T04:10:41.515Z,14.95
2022-10-09T04:13:08.508Z,14.83
2022-10-09T04:15:35.427Z,14.97
2022-10-09T04:18:02.756Z,14.58
2022-10-09T04:20:29.531Z,14.85
2022-10-09T04:22:56.440Z,14.46
2022-10-09T04:25:23.279Z,14.66
2022-10-09T04:27:49.959Z,14.90
2022-10-09T04:30:16.769Z,14.90
2022-10-09T04:32:43.527Z,14.82
2022-10-09T04:35:11.232Z,14.96
2022-10-09T04:37:38.123Z,14.99
2022-10-09T04:40:05.262Z,14.85
2022-10-09T04:42:32.064Z,14.74
2022-10-09T04:44:58.808Z,14.88
2022-10-09T04:47:25.782Z,14.96
2022-10-09T04:49:52.583Z,14.82
2022-10-09T04:52:19.575Z,14.89
2022-10-09T04:54:46.324Z,14.76
2022-10-09T04:57:13.171Z,14.65
2022-10-09T04:59:39.985Z,14.70
2022-10-09T05:02:06.760Z,14.90
2022-10-09T05:04:33.431Z,14.71
2022-10-09T05:07:00.259Z,14.73
2022-10-09T05:09:27.018Z,14.77
2022-10-09T05:11:53.851Z,14.77
2022-10-09T05:14:20.555Z,14.84
2022-10-09T05:17:12.523Z,14.76
2022-10-09T05:19:39.324Z,14.71
2022-10-09T05:22:06.098Z,14.62
2022-10-09T05:24:32.845Z,14.72
2022-10-09T05:26:59.513Z,14.89
2022-10-09T05:29:26.523Z,14.95
2022-10-09T05:31:53.408Z,14.94
2022-10-09T05:34:20.250Z,15.06
2022-10-09T05:36:47.216Z,15.30
2022-10-09T05:39:13.903Z,15.12
2022-10-09T05:41:40.688Z,15.15
2022-10-09T05:44:08.839Z,15.41
2022-10-09T05:46:35.736Z,15.18
2022-10-09T05:49:07.721Z,14.10
2022-10-09T05:51:37.376Z,14.46
2022-10-09T05:54:05.655Z,13.90
2022-10-09T05:56:37.920Z,14.82
2022-10-09T05:59:19.396Z,15.00
2022-10-09T06:01:51.672Z,15.19
2022-10-09T06:04:21.395Z,15.31
2022-10-09T06:06:48.996Z,14.33
2022-10-09T06:09:18.158Z,13.82
2022-10-09T06:11:45.672Z,14.03
2022-10-09T06:14:13.654Z,14.63
2022-10-09T06:16:42.576Z,14.64
2022-10-09T06:19:14.237Z,14.87
2022-10-09T06:21:41.825Z,15.00
2022-10-09T06:24:11.022Z,15.55
2022-10-09T06:26:37.836Z,15.36
2022-10-09T06:29:04.563Z,14.90
2022-10-09T06:31:33.331Z,15.79
2022-10-09T06:34:01.782Z,16.17
2022-10-09T06:36:31.810Z,15.72
2022-10-09T06:39:00.586Z,16.39
2022-10-09T06:41:28.673Z,16.66
2022-10-09T06:43:57.530Z,15.99
2022-10-09T06:46:27.007Z,16.45
2022-10-09T06:48:53.856Z,16.91
2022-10-09T06:51:22.911Z,16.01
2022-10-09T06:53:55.117Z,16.57
2022-10-09T06:56:23.778Z,16.37
2022-10-09T06:58:51.954Z,16.82
2022-10-09T07:01:32.974Z,17.36
2022-10-09T07:04:02.970Z,17.59
2022-10-09T07:06:31.746Z,17.85
2022-10-09T07:09:00.822Z,17.82
2022-10-09T07:11:33.251Z,17.29
2022-10-09T07:14:02.217Z,17.99
2022-10-09T07:16:32.254Z,18.01
2022-10-09T07:19:01.247Z,17.28
2022-10-09T07:21:28.154Z,17.53
2022-10-09T07:23:54.948Z,17.87
2022-10-09T07:26:25.613Z,18.09
2022-10-09T07:28:53.149Z,17.54
2022-10-09T07:31:20.412Z,18.06
2022-10-09T07:33:48.695Z,18.40
2022-10-09T07:36:15.545Z,18.60
2022-10-09T07:38:42.396Z,18.81
2022-10-09T07:41:13.031Z,18.97
2022-10-09T07:43:41.746Z,18.79
2022-10-09T07:46:12.938Z,18.80
2022-10-09T07:48:40.204Z,18.32
2022-10-09T07:51:11.057Z,18.72
2022-10-09T07:53:38.591Z,18.84
2022-10-09T07:56:06.660Z,18.88
2022-10-09T07:58:33.702Z,18.96
2022-10-09T08:01:05.438Z,19.17
2022-10-09T08:03:32.452Z,19.64
2022-10-09T08:05:59.261Z,20.26
2022-10-09T08:08:26.212Z,19.46
2022-10-09T08:10:53.001Z,20.33
2022-10-09T08:13:19.812Z,19.99
2022-10-09T08:15:46.884Z,20.08
2022-10-09T08:18:13.750Z,19.93
2022-10-09T08:20:40.444Z,20.05
2022-10-09T08:23:07.593Z,20.32
2022-10-09T08:25:38.384Z,20.12
2022-10-09T08:28:05.267Z,20.39
2022-10-09T08:30:32.237Z,20.26
2022-10-09T08:32:59.131Z,20.91
2022-10-09T08:35:25.819Z,20.98
2022-10-09T08:37:53.871Z,21.33
2022-10-09T08:40:29.422Z,21.79
2022-10-09T08:43:08.168Z,21.62
2022-10-09T08:45:35.260Z,22.07
2022-10-09T08:48:06.570Z,22.00
2022-10-09T08:50:38.117Z,22.52
2022-10-09T08:53:04.918Z,22.66
2022-10-09T08:55:36.664Z,22.78
2022-10-09T08:58:11.330Z,22.52
2022-10-09T09:00:37.940Z,23.07
2022-10-09T09:03:26.662Z,22.78
2022-10-09T09:06:41.607Z,22.99
2022-10-09T09:09:19.126Z,23.41
2022-10-09T09:11:48.664Z,23.35
2022-10-09T09:14:58.632Z,23.25
2022-10-09T09:17:39.920Z,23.72
2022-10-09T09:20:16.573Z,23.69
2022-10-09T09:22:48.788Z,23.65
2022-10-09T09:25:46.253Z,23.57
2022-10-09T09:28:22.645Z,23.96
2022-10-09T09:31:22.258Z,23.43
2022-10-09T09:34:11.343Z,23.75
2022-10-09T09:36:44.745Z,23.98
2022-10-09T09:44:58.283Z,24.22
2022-10-09T09:47:49.352Z,23.95
2022-10-09T09:50:42.256Z,23.68
2022-10-09T09:53:35.370Z,24.22
2022-10-09T09:56:02.532Z,24.41
2022-10-09T09:58:51.510Z,24.37
2022-10-09T10:01:24.330Z,24.85
2022-10-09T10:03:53.800Z,24.43
2022-10-09T10:06:25.543Z,24.27
2022-10-09T10:09:19.632Z,23.54
2022-10-09T10:12:16.448Z,23.32
2022-10-09T10:14:50.205Z,24.12
2022-10-09T10:17:28.411Z,24.76
2022-10-09T10:19:55.272Z,24.74
2022-10-09T10:22:25.067Z,24.82
2022-10-09T10:24:55.031Z,24.33
2022-10-09T10:27:35.693Z,25.16
2022-10-09T10:30:06.308Z,25.71
2022-10-09T10:32:44.107Z,25.13
2022-10-09T10:35:16.670Z,25.59
2022-10-09T10:37:47.788Z,25.36
2022-10-09T10:40:35.114Z,25.42
2022-10-09T10:43:10.755Z,25.27
2022-10-09T10:46:01.837Z,25.28
2022-10-09T10:48:33.336Z,25.53
2022-10-09T10:51:25.048Z,24.98
2022-10-09T10:54:30.352Z,24.74
2022-10-09T10:57:06.453Z,25.06
2022-10-09T10:59:54.672Z,24.63
2022-10-09T11:02:33.932Z,24.42
2022-10-09T11:05:17.200Z,24.96
2022-10-09T11:08:03.176Z,25.39
2022-10-09T11:10:45.070Z,25.95
2022-10-09T11:13:33.432Z,25.41
2022-10-09T11:16:26.768Z,25.72
2022-10-09T11:19:06.207Z,25.60
2022-10-09T11:21:52.974Z,25.60
2022-10-09T11:24:31.742Z,25.89
2022-10-09T11:27:05.244Z,26.31
2022-10-09T11:30:01.376Z,25.86
2022-10-09T11:35:22.371Z,27.08
2022-10-09T11:38:12.439Z,27.18
2022-10-09T11:40:42.775Z,27.32
2022-10-09T11:43:30.186Z,27.54
2022-10-09T11:46:39.628Z,27.18
2022-10-09T11:49:24.769Z,27.83
2022-10-09T11:52:00.413Z,28.44
2022-10-09T11:54:28.341Z,28.43
2022-10-09T11:57:00.676Z,28.19
2022-10-09T11:59:36.464Z,28.11
2022-10-09T12:02:32.904Z,28.18
2022-10-09T12:05:00.144Z,28.06
2022-10-09T12:07:34.479Z,28.61
2022-10-09T12:10:33.724Z,28.88
2022-10-09T12:13:06.674Z,28.84
2022-10-09T12:16:00.031Z,29.06
2022-10-09T12:18:46.173Z,29.58
2022-10-09T12:21:42.792Z,29.53
2022-10-09T12:24:16.792Z,29.04
2022-10-09T12:26:44.338Z,29.43
2022-10-09T12:29:27.715Z,29.23
2022-10-09T12:31:59.979Z,29.27
2022-10-09T12:34:36.291Z,29.38
2022-10-09T12:37:16.860Z,29.88
2022-10-09T12:39:44.973Z,30.17
2022-10-09T12:42:17.698Z,30.59
2022-10-09T12:44:45.956Z,30.61
2022-10-09T12:47:23.372Z,30.58
2022-10-09T12:50:02.169Z,31.23
2022-10-09T12:52:31.135Z,30.97
2022-10-09T12:54:58.237Z,31.53
2022-10-09T12:57:27.810Z,31.04
2022-10-09T12:59:55.796Z,30.66
2022-10-09T13:02:23.757Z,29.32
2022-10-09T13:05:02.236Z,29.83
2022-10-09T13:07:32.462Z,29.89
2022-10-09T13:10:17.754Z,29.41
2022-10-09T13:12:53.401Z,30.03
2022-10-09T13:15:38.329Z,29.56
2022-10-09T13:18:24.772Z,30.75
2022-10-09T13:21:03.777Z,31.16
2022-10-09T13:23:35.346Z,32.48
2022-10-09T13:26:04.532Z,31.85
2022-10-09T13:28:31.849Z,31.39
2022-10-09T13:31:08.709Z,29.90
2022-10-09T13:33:35.674Z,31.63
2022-10-09T13:36:02.358Z,32.60
2022-10-09T13:38:32.669Z,32.69
2022-10-09T13:41:01.562Z,32.80
2022-10-09T13:43:29.098Z,30.69
2022-10-09T13:45:55.986Z,30.86
2022-10-09T13:48:23.330Z,31.24
2022-10-09T13:50:50.111Z,31.41
2022-10-09T13:53:16.986Z,30.56
2022-10-09T13:55:44.043Z,29.67
2022-10-09T13:58:10.798Z,30.40
2022-10-09T14:00:37.784Z,30.82
2022-10-09T14:03:05.065Z,31.23
2022-10-09T14:05:31.784Z,31.69
2022-10-09T14:07:58.560Z,32.29
2022-10-09T14:10:25.432Z,31.85
2022-10-09T14:12:52.596Z,31.40
2022-10-09T14:15:19.498Z,31.51
2022-10-09T14:17:46.714Z,31.54
2022-10-09T14:20:14.016Z,30.58
2022-10-09T14:22:40.749Z,28.80
2022-10-09T14:25:08.273Z,28.92
2022-10-09T14:30:07.397Z,28.25
2022-10-09T14:32:34.143Z,28.45
2022-10-09T14:35:00.892Z,28.52
2022-10-09T14:37:40.932Z,28.02
2022-10-09T14:40:11.081Z,27.80
2022-10-09T14:42:38.727Z,27.68
2022-10-09T14:45:14.360Z,27.40
2022-10-09T14:47:41.359Z,27.38
2022-10-09T14:50:08.563Z,27.37
2022-10-09T14:52:35.316Z,27.27
2022-10-09T14:55:02.291Z,27.48
2022-10-09T14:57:34.385Z,26.98
2022-10-09T15:00:03.161Z,27.07
2022-10-09T15:02:29.840Z,27.07
2022-10-09T15:04:56.905Z,26.49
2022-10-09T15:07:23.776Z,26.61
2022-10-09T15:09:50.789Z,26.50
2022-10-09T15:12:17.505Z,26.65
2022-10-09T15:14:44.476Z,26.82
2022-10-09T15:17:11.147Z,26.72
2022-10-09T15:19:37.944Z,26.36
2022-10-09T15:22:04.812Z,25.92
2022-10-09T15:24:31.622Z,25.82
2022-10-09T15:26:58.423Z,25.72
2022-10-09T15:29:25.271Z,25.90
2022-10-09T15:31:51.979Z,25.45
2022-10-09T15:34:19.845Z,25.35
2022-10-09T15:36:47.074Z,25.03
2022-10-09T15:39:15.023Z,24.97
2022-10-09T15:41:43.252Z,25.22
2022-10-09T15:44:19.307Z,25.29
2022-10-09T15:46:47.759Z,25.15
2022-10-09T15:49:14.554Z,24.74
2022-10-09T15:51:42.662Z,25.23
2022-10-09T15:54:11.895Z,24.99
2022-10-09T15:56:40.164Z,24.99
2022-10-09T15:59:07.726Z,24.81
2022-10-09T16:01:34.452Z,24.73
2022-10-09T16:04:01.251Z,24.42
2022-10-09T16:06:27.981Z,24.43
2022-10-09T16:08:57.462Z,24.10
2022-10-09T16:11:26.551Z,23.88
2022-10-09T16:13:54.886Z,24.01
2022-10-09T16:16:24.363Z,23.99
2022-10-09T16:18:51.639Z,23.85
2022-10-09T16:21:22.813Z,23.83
2022-10-09T16:23:52.233Z,23.44
2022-10-09T16:26:22.347Z,24.01
2022-10-09T16:28:49.328Z,24.05
2022-10-09T16:31:25.977Z,24.29
2022-10-09T16:33:53.308Z,24.39
2022-10-09T16:36:20.470Z,24.46
2022-10-09T16:38:47.935Z,23.94
2022-10-09T16:41:20.059Z,23.52
2022-10-09T16:43:48.907Z,23.26
2022-10-09T16:49:05.742Z,23.72
2022-10-09T16:51:35.099Z,23.79
2022-10-09T16:54:03.606Z,23.72
2022-10-09T16:56:33.472Z,23.94
2022-10-09T16:59:03.175Z,23.34
2022-10-09T17:01:30.861Z,23.16
2022-10-09T17:03:59.229Z,23.10
2022-10-09T17:06:27.081Z,23.08
2022-10-09T17:08:56.949Z,22.75
2022-10-09T17:11:25.961Z,22.82
2022-10-09T17:13:56.808Z,22.62
2022-10-09T17:16:27.013Z,22.73
2022-10-09T17:18:54.430Z,22.71
2022-10-09T17:21:21.580Z,22.07
2022-10-09T17:23:50.856Z,22.28
2022-10-09T17:26:19.602Z,22.05
2022-10-09T17:28:47.493Z,22.59
2022-10-09T17:31:17.025Z,22.17
2022-10-09T17:33:46.279Z,22.29
2022-10-09T17:36:15.890Z,22.06
2022-10-09T17:38:43.149Z,22.15
2022-10-09T17:41:12.409Z,22.14
2022-10-09T17:43:39.780Z,22.39
2022-10-09T17:46:07.279Z,22.08
2022-10-09T17:48:35.099Z,22.62
2022-10-09T17:51:06.132Z,22.60
2022-10-09T17:53:33.094Z,22.63
2022-10-09T17:56:03.705Z,22.77
2022-10-09T17:58:30.886Z,22.84
2022-10-09T18:00:57.980Z,22.40
2022-10-09T18:03:24.852Z,22.67
2022-10-09T18:05:51.649Z,22.35
2022-10-09T18:08:19.508Z,22.04
2022-10-09T18:10:46.503Z,22.37
2022-10-09T18:13:13.501Z,21.93
2022-10-09T18:15:43.193Z,22.24
2022-10-09T18:18:11.286Z,21.78
2022-10-09T18:20:39.607Z,21.47
2022-10-09T18:23:07.754Z,21.28
2022-10-09T18:25:35.661Z,21.49
2022-10-09T18:28:03.739Z,21.71
2022-10-09T18:30:30.578Z,21.49
2022-10-09T18:32:57.776Z,21.85
2022-10-09T18:35:25.618Z,21.87
2022-10-09T18:37:53.303Z,21.56
2022-10-09T18:40:20.031Z,21.52
2022-10-09T18:42:47.057Z,21.52
2022-10-09T18:45:14.740Z,21.85
2022-10-09T18:47:41.988Z,21.64
2022-10-09T18:50:13.530Z,21.65
2022-10-09T18:52:42.508Z,21.62
2022-10-09T18:55:15.027Z,21.90
2022-10-09T18:57:42.457Z,21.51
2022-10-09T19:00:09.839Z,21.46
2022-10-09T19:02:36.769Z,21.42
2022-10-09T19:05:04.227Z,21.52
2022-10-09T19:07:31.134Z,21.42
2022-10-09T19:09:57.900Z,21.34
2022-10-09T19:12:25.336Z,21.29
2022-10-09T19:14:52.318Z,20.99
2022-10-09T19:17:20.182Z,21.26
2022-10-09T19:19:46.991Z,21.28
2022-10-09T19:22:16.385Z,20.99
2022-10-09T19:24:44.339Z,20.99
2022-10-09T19:27:11.397Z,20.91
2022-10-09T19:29:38.148Z,21.45
2022-10-09T19:32:05.074Z,21.42
2022-10-09T19:34:31.903Z,21.00
2022-10-09T19:36:58.797Z,21.08
2022-10-09T19:39:25.564Z,20.75
2022-10-09T19:41:52.601Z,20.77
2022-10-09T19:44:19.501Z,20.54
2022-10-09T19:46:46.818Z,20.27
2022-10-09T19:49:13.838Z,20.69
2022-10-09T19:51:40.817Z,21.00
2022-10-09T19:54:08.445Z,20.62
2022-10-09T19:56:36.469Z,20.76
2022-10-09T19:59:05.848Z,20.50
2022-10-09T20:01:35.434Z,20.55
2022-10-09T20:04:07.665Z,20.76
2022-10-09T20:06:38.388Z,20.56
2022-10-09T20:09:08.199Z,20.63
2022-10-09T20:11:35.872Z,20.56
2022-10-09T20:14:03.787Z,20.32
2022-10-09T20:16:32.237Z,20.36
2022-10-09T20:19:03.666Z,20.53
2022-10-09T20:21:32.895Z,20.70
2022-10-09T20:24:01.177Z,20.74
2022-10-09T20:26:31.479Z,20.66
2022-10-09T20:28:58.302Z,20.15
2022-10-09T20:31:26.560Z,20.34
2022-10-09T20:33:55.181Z,20.57
2022-10-09T20:36:21.933Z,20.62
2022-10-09T20:38:48.601Z,20.62
2022-10-09T20:41:15.911Z,20.66
2022-10-09T20:43:42.889Z,20.69
2022-10-09T20:46:13.426Z,20.15
2022-10-09T20:48:44.394Z,20.13
2022-10-09T20:51:11.497Z,20.25
2022-10-09T20:53:38.283Z,20.28
2022-10-09T20:56:08.629Z,20.01
2022-10-09T20:58:35.973Z,20.27
2022-10-09T21:01:07.313Z,19.85
2022-10-09T21:03:35.685Z,20.20
2022-10-09T21:06:04.326Z,20.23
2022-10-09T21:08:31.331Z,19.94
2022-10-09T21:10:58.716Z,19.47
2022-10-09T21:13:25.587Z,19.65
2022-10-09T21:15:52.539Z,19.99
2022-10-09T21:18:19.809Z,20.18
2022-10-09T21:20:47.647Z,19.79
2022-10-09T21:23:16.615Z,19.30
2022-10-09T21:25:50.272Z,19.08
2022-10-09T21:28:18.272Z,19.50
2022-10-09T21:30:45.061Z,19.41
2022-10-09T21:33:12.060Z,19.11
2022-10-09T21:35:50.808Z,18.98
2022-10-09T21:38:20.681Z,19.03
2022-10-09T21:40:49.427Z,19.23
2022-10-09T21:43:17.084Z,19.34
2022-10-09T21:45:44.462Z,19.29
2022-10-09T21:48:16.195Z,19.45
2022-10-09T21:50:43.730Z,19.66
2022-10-09T21:53:11.450Z,19.55
2022-10-09T21:55:39.398Z,18.64
2022-10-09T21:58:07.042Z,18.08
2022-10-09T22:00:46.067Z,18.94
2022-10-09T22:03:12.848Z,19.07
2022-10-09T22:05:40.752Z,19.18
2022-10-09T22:08:07.728Z,19.12
2022-10-09T22:10:34.445Z,19.07
2022-10-09T22:13:01.459Z,18.99
2022-10-09T22:15:28.228Z,18.69
2022-10-09T22:17:55.188Z,18.69
2022-10-09T22:20:21.922Z,18.23
2022-10-09T22:22:49.311Z,18.34
2022-10-09T22:25:16.777Z,18.55
2022-10-09T22:27:43.548Z,18.62
2022-10-09T22:30:11.083Z,18.69
2022-10-09T22:32:37.873Z,18.62
2022-10-09T22:35:04.937Z,18.40
2022-10-09T22:37:32.832Z,18.42
2022-10-09T22:39:59.552Z,18.53
2022-10-09T22:42:26.400Z,18.10
2022-10-09T22:44:53.184Z,17.90
2022-10-09T22:47:20.144Z,17.50
2022-10-09T22:49:49.442Z,17.94
2022-10-09T22:52:16.546Z,18.26
2022-10-09T22:54:43.403Z,18.33
2022-10-09T22:57:10.220Z,18.38
2022-10-09T22:59:36.906Z,18.50
2022-10-09T23:02:04.026Z,18.31
2022-10-09T23:04:30.872Z,18.45
2022-10-09T23:06:58.825Z,18.54
2022-10-09T23:09:28.769Z,18.50
2022-10-09T23:11:56.500Z,18.50
2022-10-09T23:14:23.692Z,18.47
2022-10-09T23:16:50.570Z,18.49
2022-10-09T23:19:17.720Z,18.32
2022-10-09T23:21:45.712Z,18.44
2022-10-09T23:24:17.945Z,18.15
2022-10-09T23:26:46.505Z,18.21
2022-10-09T23:29:17.362Z,18.28
2022-10-09T23:31:44.749Z,18.04
2022-10-09T23:34:11.974Z,18.06
2022-10-09T23:36:38.898Z,18.09
2022-10-09T23:39:06.734Z,18.17
2022-10-09T23:41:33.886Z,18.21
2022-10-09T23:44:00.743Z,18.21
2022-10-09T23:46:30.443Z,18.10
2022-10-09T23:48:57.495Z,17.99
2022-10-09T23:51:25.734Z,18.04
2022-10-09T23:53:52.917Z,18.00
2022-10-09T23:56:19.655Z,17.72
2022-10-09T23:58:46.623Z,17.94
